sensor_id;sensor_type;location;lat;lon;timestamp;temperature;humidity
33739;DHT22;20063;51.730;11.110;2023-04-24T00:00:05;13.20;99.90
33739;DHT22;20063;51.730;11.110;2023-04-24T00:02:34;13.10;99.90
33739;DHT22;20063;51.730;11.110;2023-04-24T00:05:03;13.10;99.90
33739;DHT22;20063;51.730;11.110;2023-04-24T00:07:30;13.10;99.90
33739;DHT22;20063;51.730;11.110;2023-04-24T00:09:55;13.10;99.90
33739;DHT22;20063;51.730;11.110;2023-04-24T00:12:21;13.00;99.90
33739;DHT22;20063;51.730;11.110;2023-04-24T00:14:47;13.00;99.90
33739;DHT22;20063;51.730;11.110;2023-04-24T00:17:13;13.00;99.90
33739;DHT22;20063;51.730;11.110;2023-04-24T00:19:38;13.00;99.90
33739;DHT22;20063;51.730;11.110;2023-04-24T00:22:04;13.00;99.90
33739;DHT22;20063;51.730;11.110;2023-04-24T00:24:29;13.00;99.90
33739;DHT22;20063;51.730;11.110;2023-04-24T00:26:55;12.90;99.90
33739;DHT22;20063;51.730;11.110;2023-04-24T00:29:21;12.90;99.90
33739;DHT22;20063;51.730;11.110;2023-04-24T00:31:47;12.90;99.90
33739;DHT22;20063;51.730;11.110;2023-04-24T00:34:12;12.90;99.90
33739;DHT22;20063;51.730;11.110;2023-04-24T00:36:38;12.90;99.90
33739;DHT22;20063;51.730;11.110;2023-04-24T00:39:04;12.90;99.90
33739;DHT22;20063;51.730;11.110;2023-04-24T00:41:30;12.80;99.90
33739;DHT22;20063;51.730;11.110;2023-04-24T00:43:56;12.90;99.90
33739;DHT22;20063;51.730;11.110;2023-04-24T00:46:22;12.80;99.90
33739;DHT22;20063;51.730;11.110;2023-04-24T00:48:48;12.80;99.90
33739;DHT22;20063;51.730;11.110;2023-04-24T00:51:13;12.80;99.90
33739;DHT22;20063;51.730;11.110;2023-04-24T00:53:39;12.70;99.90
33739;DHT22;20063;51.730;11.110;2023-04-24T00:56:05;12.70;99.90
33739;DHT22;20063;51.730;11.110;2023-04-24T00:58:31;12.70;99.90
33739;DHT22;20063;51.730;11.110;2023-04-24T01:00:57;12.70;99.90
33739;DHT22;20063;51.730;11.110;2023-04-24T01:03:26;12.80;99.90
33739;DHT22;20063;51.730;11.110;2023-04-24T01:05:54;12.70;99.90
33739;DHT22;20063;51.730;11.110;2023-04-24T01:08:23;12.60;99.90
33739;DHT22;20063;51.730;11.110;2023-04-24T01:10:51;12.60;99.90
33739;DHT22;20063;51.730;11.110;2023-04-24T01:13:18;12.60;99.90
33739;DHT22;20063;51.730;11.110;2023-04-24T01:15:44;12.50;99.90
33739;DHT22;20063;51.730;11.110;2023-04-24T01:18:10;12.60;99.90
33739;DHT22;20063;51.730;11.110;2023-04-24T01:20:42;12.50;99.90
33739;DHT22;20063;51.730;11.110;2023-04-24T01:23:10;12.50;99.90
33739;DHT22;20063;51.730;11.110;2023-04-24T01:25:36;12.50;99.90
33739;DHT22;20063;51.730;11.110;2023-04-24T01:28:02;12.40;99.90
33739;DHT22;20063;51.730;11.110;2023-04-24T01:30:30;12.40;99.90
33739;DHT22;20063;51.730;11.110;2023-04-24T01:32:56;12.40;99.90
33739;DHT22;20063;51.730;11.110;2023-04-24T01:35:22;12.30;99.90
33739;DHT22;20063;51.730;11.110;2023-04-24T01:37:47;12.30;99.90
33739;DHT22;20063;51.730;11.110;2023-04-24T01:40:13;12.30;99.90
33739;DHT22;20063;51.730;11.110;2023-04-24T01:42:41;12.30;99.90
33739;DHT22;20063;51.730;11.110;2023-04-24T01:45:09;12.30;99.90
33739;DHT22;20063;51.730;11.110;2023-04-24T01:47:35;12.20;99.90
33739;DHT22;20063;51.730;11.110;2023-04-24T01:50:02;12.20;99.90
33739;DHT22;20063;51.730;11.110;2023-04-24T01:52:27;12.20;99.90
33739;DHT22;20063;51.730;11.110;2023-04-24T01:54:59;12.10;99.90
33739;DHT22;20063;51.730;11.110;2023-04-24T01:57:25;12.10;99.90
33739;DHT22;20063;51.730;11.110;2023-04-24T01:59:51;12.00;99.90
33739;DHT22;20063;51.730;11.110;2023-04-24T02:02:20;12.00;99.90
33739;DHT22;20063;51.730;11.110;2023-04-24T02:04:46;12.00;99.90
33739;DHT22;20063;51.730;11.110;2023-04-24T02:07:12;12.00;99.90
33739;DHT22;20063;51.730;11.110;2023-04-24T02:09:37;12.00;99.90
33739;DHT22;20063;51.730;11.110;2023-04-24T02:12:03;12.00;99.90
33739;DHT22;20063;51.730;11.110;2023-04-24T02:14:30;12.00;99.90
33739;DHT22;20063;51.730;11.110;2023-04-24T02:16:56;12.00;99.90
33739;DHT22;20063;51.730;11.110;2023-04-24T02:19:26;12.00;99.90
33739;DHT22;20063;51.730;11.110;2023-04-24T02:21:51;11.90;99.90
33739;DHT22;20063;51.730;11.110;2023-04-24T02:24:17;11.90;99.90
33739;DHT22;20063;51.730;11.110;2023-04-24T02:26:42;12.00;99.90
33739;DHT22;20063;51.730;11.110;2023-04-24T02:29:08;11.90;99.90
33739;DHT22;20063;51.730;11.110;2023-04-24T02:31:33;11.80;99.90
33739;DHT22;20063;51.730;11.110;2023-04-24T02:33:59;11.80;99.90
33739;DHT22;20063;51.730;11.110;2023-04-24T02:36:25;11.80;99.90
33739;DHT22;20063;51.730;11.110;2023-04-24T02:38:50;11.80;99.90
33739;DHT22;20063;51.730;11.110;2023-04-24T02:41:16;11.80;99.90
33739;DHT22;20063;51.730;11.110;2023-04-24T02:43:41;11.70;99.90
33739;DHT22;20063;51.730;11.110;2023-04-24T02:46:07;11.70;99.90
33739;DHT22;20063;51.730;11.110;2023-04-24T02:48:33;11.70;99.90
33739;DHT22;20063;51.730;11.110;2023-04-24T02:50:58;11.70;99.90
33739;DHT22;20063;51.730;11.110;2023-04-24T02:53:24;11.60;99.90
33739;DHT22;20063;51.730;11.110;2023-04-24T02:55:49;11.70;99.90
33739;DHT22;20063;51.730;11.110;2023-04-24T02:58:16;11.60;99.90
33739;DHT22;20063;51.730;11.110;2023-04-24T03:00:42;11.60;99.90
33739;DHT22;20063;51.730;11.110;2023-04-24T03:03:08;11.60;99.90
33739;DHT22;20063;51.730;11.110;2023-04-24T03:05:34;11.60;99.90
33739;DHT22;20063;51.730;11.110;2023-04-24T03:08:01;11.60;99.90
33739;DHT22;20063;51.730;11.110;2023-04-24T03:10:26;11.60;99.90
33739;DHT22;20063;51.730;11.110;2023-04-24T03:12:52;11.60;99.90
33739;DHT22;20063;51.730;11.110;2023-04-24T03:15:19;11.60;99.90
33739;DHT22;20063;51.730;11.110;2023-04-24T03:17:44;11.60;99.90
33739;DHT22;20063;51.730;11.110;2023-04-24T03:20:10;11.60;99.90
33739;DHT22;20063;51.730;11.110;2023-04-24T03:22:36;11.60;99.90
33739;DHT22;20063;51.730;11.110;2023-04-24T03:25:02;11.60;99.90
33739;DHT22;20063;51.730;11.110;2023-04-24T03:27:27;11.50;99.90
33739;DHT22;20063;51.730;11.110;2023-04-24T03:29:53;11.50;99.90
33739;DHT22;20063;51.730;11.110;2023-04-24T03:32:21;11.50;99.90
33739;DHT22;20063;51.730;11.110;2023-04-24T03:34:50;11.50;99.90
33739;DHT22;20063;51.730;11.110;2023-04-24T03:37:16;11.50;99.90
33739;DHT22;20063;51.730;11.110;2023-04-24T03:39:42;11.50;99.90
33739;DHT22;20063;51.730;11.110;2023-04-24T03:42:08;11.40;99.90
33739;DHT22;20063;51.730;11.110;2023-04-24T03:44:34;11.40;99.90
33739;DHT22;20063;51.730;11.110;2023-04-24T03:47:00;11.40;99.90
33739;DHT22;20063;51.730;11.110;2023-04-24T03:49:26;11.40;99.90
33739;DHT22;20063;51.730;11.110;2023-04-24T03:51:51;11.40;99.90
33739;DHT22;20063;51.730;11.110;2023-04-24T03:54:18;11.40;99.90
33739;DHT22;20063;51.730;11.110;2023-04-24T03:56:44;11.40;99.90
33739;DHT22;20063;51.730;11.110;2023-04-24T03:59:10;11.40;99.90
33739;DHT22;20063;51.730;11.110;2023-04-24T04:01:36;11.40;99.90
33739;DHT22;20063;51.730;11.110;2023-04-24T04:04:06;11.30;99.90
33739;DHT22;20063;51.730;11.110;2023-04-24T04:06:32;11.40;99.90
33739;DHT22;20063;51.730;11.110;2023-04-24T04:08:58;11.30;99.90
33739;DHT22;20063;51.730;11.110;2023-04-24T04:11:24;11.40;99.90
33739;DHT22;20063;51.730;11.110;2023-04-24T04:13:50;11.30;99.90
33739;DHT22;20063;51.730;11.110;2023-04-24T04:16:16;11.30;99.90
33739;DHT22;20063;51.730;11.110;2023-04-24T04:18:45;11.40;99.90
33739;DHT22;20063;51.730;11.110;2023-04-24T04:21:11;11.40;99.90
33739;DHT22;20063;51.730;11.110;2023-04-24T04:23:36;11.40;99.90
33739;DHT22;20063;51.730;11.110;2023-04-24T04:26:03;11.40;99.90
33739;DHT22;20063;51.730;11.110;2023-04-24T04:28:29;11.40;99.90
33739;DHT22;20063;51.730;11.110;2023-04-24T04:30:56;11.50;99.90
33739;DHT22;20063;51.730;11.110;2023-04-24T04:33:23;11.40;99.90
33739;DHT22;20063;51.730;11.110;2023-04-24T04:35:49;11.40;99.90
33739;DHT22;20063;51.730;11.110;2023-04-24T04:38:15;11.40;99.90
33739;DHT22;20063;51.730;11.110;2023-04-24T04:40:42;11.40;99.90
33739;DHT22;20063;51.730;11.110;2023-04-24T04:43:07;11.50;99.90
33739;DHT22;20063;51.730;11.110;2023-04-24T04:45:33;11.50;99.90
33739;DHT22;20063;51.730;11.110;2023-04-24T04:48:00;11.50;99.90
33739;DHT22;20063;51.730;11.110;2023-04-24T04:50:27;11.50;99.90
33739;DHT22;20063;51.730;11.110;2023-04-24T04:52:52;11.60;99.90
33739;DHT22;20063;51.730;11.110;2023-04-24T04:55:18;11.60;99.90
33739;DHT22;20063;51.730;11.110;2023-04-24T04:57:46;11.70;99.90
33739;DHT22;20063;51.730;11.110;2023-04-24T05:00:12;11.70;99.90
33739;DHT22;20063;51.730;11.110;2023-04-24T05:02:38;11.70;99.90
33739;DHT22;20063;51.730;11.110;2023-04-24T05:05:05;11.80;99.90
33739;DHT22;20063;51.730;11.110;2023-04-24T05:07:31;11.80;99.90
33739;DHT22;20063;51.730;11.110;2023-04-24T05:09:56;11.80;99.90
33739;DHT22;20063;51.730;11.110;2023-04-24T05:12:22;11.80;99.90
33739;DHT22;20063;51.730;11.110;2023-04-24T05:14:47;11.80;99.90
33739;DHT22;20063;51.730;11.110;2023-04-24T05:17:13;11.80;99.90
33739;DHT22;20063;51.730;11.110;2023-04-24T05:19:39;11.80;99.90
33739;DHT22;20063;51.730;11.110;2023-04-24T05:22:05;11.80;99.90
33739;DHT22;20063;51.730;11.110;2023-04-24T05:24:33;11.80;99.90
33739;DHT22;20063;51.730;11.110;2023-04-24T05:26:59;11.80;99.90
33739;DHT22;20063;51.730;11.110;2023-04-24T05:29:26;11.80;99.90
33739;DHT22;20063;51.730;11.110;2023-04-24T05:31:52;11.80;99.90
33739;DHT22;20063;51.730;11.110;2023-04-24T05:34:19;11.90;99.90
33739;DHT22;20063;51.730;11.110;2023-04-24T05:36:44;11.90;99.90
33739;DHT22;20063;51.730;11.110;2023-04-24T05:39:10;11.90;99.90
33739;DHT22;20063;51.730;11.110;2023-04-24T05:41:37;11.90;99.90
33739;DHT22;20063;51.730;11.110;2023-04-24T05:44:02;12.00;99.90
33739;DHT22;20063;51.730;11.110;2023-04-24T05:46:28;12.00;99.90
33739;DHT22;20063;51.730;11.110;2023-04-24T05:48:53;12.00;99.90
33739;DHT22;20063;51.730;11.110;2023-04-24T05:51:19;12.00;99.90
33739;DHT22;20063;51.730;11.110;2023-04-24T05:53:44;12.00;99.90
33739;DHT22;20063;51.730;11.110;2023-04-24T05:56:10;12.00;99.90
33739;DHT22;20063;51.730;11.110;2023-04-24T05:58:36;12.00;99.90
33739;DHT22;20063;51.730;11.110;2023-04-24T06:01:03;12.00;99.90
33739;DHT22;20063;51.730;11.110;2023-04-24T06:03:29;12.10;99.90
33739;DHT22;20063;51.730;11.110;2023-04-24T06:05:55;12.10;99.90
33739;DHT22;20063;51.730;11.110;2023-04-24T06:08:20;12.20;99.90
33739;DHT22;20063;51.730;11.110;2023-04-24T06:10:46;12.10;99.90
33739;DHT22;20063;51.730;11.110;2023-04-24T06:13:12;12.10;99.90
33739;DHT22;20063;51.730;11.110;2023-04-24T06:15:37;12.10;99.90
33739;DHT22;20063;51.730;11.110;2023-04-24T06:18:03;12.10;99.90
33739;DHT22;20063;51.730;11.110;2023-04-24T06:20:29;12.10;99.90
33739;DHT22;20063;51.730;11.110;2023-04-24T06:22:54;12.10;99.90
33739;DHT22;20063;51.730;11.110;2023-04-24T06:25:29;12.10;99.90
33739;DHT22;20063;51.730;11.110;2023-04-24T06:27:55;12.10;99.90
33739;DHT22;20063;51.730;11.110;2023-04-24T06:30:22;12.10;99.90
33739;DHT22;20063;51.730;11.110;2023-04-24T06:32:47;12.20;99.90
33739;DHT22;20063;51.730;11.110;2023-04-24T06:35:13;12.10;99.90
33739;DHT22;20063;51.730;11.110;2023-04-24T06:37:42;12.20;99.90
33739;DHT22;20063;51.730;11.110;2023-04-24T06:40:08;12.20;99.90
33739;DHT22;20063;51.730;11.110;2023-04-24T06:42:34;12.20;99.90
33739;DHT22;20063;51.730;11.110;2023-04-24T06:45:00;12.20;99.90
33739;DHT22;20063;51.730;11.110;2023-04-24T06:47:26;12.20;99.90
33739;DHT22;20063;51.730;11.110;2023-04-24T06:49:52;12.30;99.90
33739;DHT22;20063;51.730;11.110;2023-04-24T06:52:18;12.30;99.90
33739;DHT22;20063;51.730;11.110;2023-04-24T06:54:44;12.30;99.90
33739;DHT22;20063;51.730;11.110;2023-04-24T06:57:09;12.40;99.90
33739;DHT22;20063;51.730;11.110;2023-04-24T06:59:36;12.40;99.90
33739;DHT22;20063;51.730;11.110;2023-04-24T07:02:01;12.30;99.90
33739;DHT22;20063;51.730;11.110;2023-04-24T07:04:28;12.30;99.90
33739;DHT22;20063;51.730;11.110;2023-04-24T07:06:53;12.30;99.90
33739;DHT22;20063;51.730;11.110;2023-04-24T07:09:24;12.40;99.90
33739;DHT22;20063;51.730;11.110;2023-04-24T07:11:51;12.40;99.90
33739;DHT22;20063;51.730;11.110;2023-04-24T07:14:17;12.40;99.90
33739;DHT22;20063;51.730;11.110;2023-04-24T07:16:43;12.50;99.90
33739;DHT22;20063;51.730;11.110;2023-04-24T07:19:09;12.50;99.90
33739;DHT22;20063;51.730;11.110;2023-04-24T07:21:35;12.50;99.90
33739;DHT22;20063;51.730;11.110;2023-04-24T07:24:01;12.50;99.90
33739;DHT22;20063;51.730;11.110;2023-04-24T07:26:29;12.50;99.90
33739;DHT22;20063;51.730;11.110;2023-04-24T07:28:55;12.60;99.90
33739;DHT22;20063;51.730;11.110;2023-04-24T07:31:20;12.50;99.90
33739;DHT22;20063;51.730;11.110;2023-04-24T07:33:49;12.50;99.90
33739;DHT22;20063;51.730;11.110;2023-04-24T07:36:15;12.50;99.90
33739;DHT22;20063;51.730;11.110;2023-04-24T07:38:47;12.50;99.90
33739;DHT22;20063;51.730;11.110;2023-04-24T07:41:13;12.50;99.90
33739;DHT22;20063;51.730;11.110;2023-04-24T07:43:39;12.60;99.90
33739;DHT22;20063;51.730;11.110;2023-04-24T07:46:06;12.60;99.90
33739;DHT22;20063;51.730;11.110;2023-04-24T07:48:31;12.50;99.90
33739;DHT22;20063;51.730;11.110;2023-04-24T07:50:57;12.50;99.90
33739;DHT22;20063;51.730;11.110;2023-04-24T07:53:22;12.50;99.90
33739;DHT22;20063;51.730;11.110;2023-04-24T07:55:48;12.50;99.90
33739;DHT22;20063;51.730;11.110;2023-04-24T07:58:14;12.60;99.90
33739;DHT22;20063;51.730;11.110;2023-04-24T08:00:39;12.50;99.90
33739;DHT22;20063;51.730;11.110;2023-04-24T08:03:05;12.60;99.90
33739;DHT22;20063;51.730;11.110;2023-04-24T08:05:30;12.60;99.90
33739;DHT22;20063;51.730;11.110;2023-04-24T08:07:56;12.60;99.90
33739;DHT22;20063;51.730;11.110;2023-04-24T08:10:22;12.70;99.90
33739;DHT22;20063;51.730;11.110;2023-04-24T08:12:48;12.90;99.90
33739;DHT22;20063;51.730;11.110;2023-04-24T08:15:14;12.90;99.90
33739;DHT22;20063;51.730;11.110;2023-04-24T08:17:40;12.90;99.90
